Time;durP1;ratioP1;P1;durP2;ratioP2;P2;SDS_P1;SDS_P2;PMS_P1;PMS_P2;Temp;Humidity;BMP_temperature;BMP_pressure;BME280_temperature;BME280_humidity;BME280_pressure;Samples;Min_cycle;Max_cycle;Signal;HPM_P1;HPM_P2
2023/06/28 00:01:40;;;;;;;7.03;2.38;;;20.10;58.90;;;;;;4979491;28;20426;-75
2023/06/28 00:04:05;;;;;;;14.82;3.42;;;20.10;59.10;;;;;;4983799;28;20088;-76
2023/06/28 00:06:31;;;;;;;7.85;2.80;;;20.00;59.10;;;;;;4984665;28;21077;-76
2023/06/28 00:08:58;;;;;;;9.35;2.85;;;20.00;59.40;;;;;;4979334;28;20038;-75
2023/06/28 00:11:25;;;;;;;8.77;2.90;;;19.90;59.60;;;;;;4987258;28;20542;-76
2023/06/28 00:13:53;;;;;;;9.43;3.05;;;20.00;59.80;;;;;;4985872;28;20092;-76
2023/06/28 00:16:19;;;;;;;9.98;3.33;;;20.00;59.60;;;;;;4983348;28;20058;-75
2023/06/28 00:18:45;;;;;;;8.55;2.63;;;20.00;59.60;;;;;;4970097;28;20686;-75
2023/06/28 00:21:14;;;;;;;9.70;3.05;;;20.00;59.80;;;;;;4980772;28;20034;-75
2023/06/28 00:23:40;;;;;;;6.93;2.50;;;19.90;60.10;;;;;;4981373;28;20105;-75
2023/06/28 00:26:06;;;;;;;8.25;2.97;;;19.90;60.60;;;;;;4975139;28;20473;-74
2023/06/28 00:28:32;;;;;;;11.43;3.30;;;19.90;60.90;;;;;;4980006;28;20018;-75
2023/06/28 00:30:57;;;;;;;9.30;2.90;;;19.90;61.30;;;;;;4978491;28;20035;-75
2023/06/28 00:33:23;;;;;;;9.68;3.40;;;19.70;62.10;;;;;;4979621;28;20040;-75
2023/06/28 00:35:49;;;;;;;8.82;3.42;;;19.70;62.50;;;;;;4983047;28;20386;-75
2023/06/28 00:38:15;;;;;;;9.40;3.10;;;19.70;62.90;;;;;;4975988;28;20178;-75
2023/06/28 00:40:40;;;;;;;9.68;3.50;;;19.70;63.00;;;;;;4980137;28;20088;-75
2023/06/28 00:43:06;;;;;;;9.88;3.13;;;19.70;63.00;;;;;;4985332;28;20041;-75
2023/06/28 00:45:32;;;;;;;11.60;3.38;;;19.70;63.00;;;;;;4986176;28;20553;-76
2023/06/28 00:47:58;;;;;;;11.45;3.60;;;19.70;63.20;;;;;;4985874;28;20046;-74
2023/06/28 00:50:25;;;;;;;9.10;3.63;;;19.70;63.30;;;;;;4987383;28;20026;-74
2023/06/28 00:52:51;;;;;;;7.63;3.13;;;19.70;63.50;;;;;;4987659;28;20489;-75
2023/06/28 00:55:17;;;;;;;12.35;3.72;;;19.70;63.80;;;;;;4983444;28;20262;-74
2023/06/28 00:57:42;;;;;;;10.35;3.70;;;19.60;64.00;;;;;;4979639;28;20045;-77
2023/06/28 01:00:12;;;;;;;10.57;3.67;;;19.60;64.30;;;;;;4983943;28;20042;-76
2023/06/28 01:02:44;;;;;;;9.85;3.90;;;19.60;65.00;;;;;;4983139;28;20474;-76
2023/06/28 01:05:12;;;;;;;11.90;4.28;;;19.50;65.50;;;;;;4988321;28;20113;-75
2023/06/28 01:07:39;;;;;;;10.23;3.58;;;19.50;65.90;;;;;;4982664;28;20069;-76
2023/06/28 01:10:06;;;;;;;12.60;3.80;;;19.60;65.90;;;;;;4993843;28;20045;-77
2023/06/28 01:12:32;;;;;;;9.85;3.97;;;19.60;66.20;;;;;;4989918;28;20405;-76
2023/06/28 01:14:58;;;;;;;13.13;4.18;;;19.60;66.30;;;;;;4986251;28;20046;-77
2023/06/28 01:17:24;;;;;;;14.82;4.65;;;19.50;66.50;;;;;;4985684;28;20046;-77
2023/06/28 01:19:49;;;;;;;9.82;4.00;;;19.50;66.70;;;;;;4983742;28;20044;-77
2023/06/28 01:22:15;;;;;;;9.75;3.65;;;19.50;67.00;;;;;;4987224;28;20046;-77
2023/06/28 01:24:41;;;;;;;10.70;3.90;;;19.50;67.10;;;;;;4992459;28;20031;-76
2023/06/28 01:27:11;;;;;;;7.97;3.70;;;19.40;67.50;;;;;;4999301;28;20120;-76
2023/06/28 01:29:37;;;;;;;10.65;4.07;;;19.50;67.60;;;;;;4981723;28;20057;-76
2023/06/28 01:32:05;;;;;;;11.40;4.32;;;19.40;67.50;;;;;;4991760;28;20038;-77
2023/06/28 01:34:31;;;;;;;10.70;4.05;;;19.50;67.80;;;;;;5011879;28;20029;-77
2023/06/28 01:36:59;;;;;;;11.05;4.47;;;19.40;67.90;;;;;;5008629;28;20042;-77
2023/06/28 01:39:26;;;;;;;12.63;5.13;;;19.40;68.20;;;;;;5005967;28;20072;-75
2023/06/28 01:41:53;;;;;;;11.57;3.70;;;19.40;68.20;;;;;;5007315;28;20042;-74
2023/06/28 01:44:19;;;;;;;10.07;4.55;;;19.40;68.40;;;;;;5006371;28;20053;-74
2023/06/28 01:46:46;;;;;;;10.25;4.20;;;19.40;68.40;;;;;;5006414;28;20033;-75
2023/06/28 01:49:12;;;;;;;11.75;4.50;;;19.40;68.40;;;;;;5007124;28;20030;-75
2023/06/28 01:51:39;;;;;;;10.88;4.30;;;19.40;68.50;;;;;;5006476;28;20048;-75
2023/06/28 01:54:05;;;;;;;12.65;4.13;;;19.40;68.70;;;;;;5010105;28;20034;-75
2023/06/28 01:56:31;;;;;;;10.00;3.90;;;19.30;68.80;;;;;;5010934;28;20080;-74
2023/06/28 01:58:57;;;;;;;11.55;4.65;;;19.40;68.90;;;;;;5006776;28;20122;-74
2023/06/28 02:01:23;;;;;;;12.10;4.68;;;19.40;68.70;;;;;;5006514;28;20463;-74
2023/06/28 02:03:48;;;;;;;9.95;4.32;;;19.40;68.80;;;;;;5008176;28;20055;-74
2023/06/28 02:06:15;;;;;;;10.80;4.90;;;19.40;68.90;;;;;;5005757;28;20034;-74
2023/06/28 02:08:41;;;;;;;11.48;4.75;;;19.40;68.90;;;;;;4984974;28;20394;-75
2023/06/28 02:11:06;;;;;;;10.73;4.45;;;19.40;68.90;;;;;;4987213;28;20027;-74
2023/06/28 02:13:32;;;;;;;10.98;4.78;;;19.40;69.10;;;;;;4986592;28;20065;-74
2023/06/28 02:15:58;;;;;;;11.15;4.03;;;19.30;69.10;;;;;;4983983;28;20062;-74
2023/06/28 02:18:26;;;;;;;10.18;4.35;;;19.30;69.20;;;;;;4984891;28;20467;-74
2023/06/28 02:20:52;;;;;;;11.68;4.65;;;19.30;69.30;;;;;;4984023;28;20097;-74
2023/06/28 02:23:18;;;;;;;9.88;3.85;;;19.30;69.50;;;;;;4988500;28;20101;-75
2023/06/28 02:25:44;;;;;;;9.60;4.40;;;19.30;69.50;;;;;;4987205;28;20133;-74
2023/06/28 02:28:10;;;;;;;9.55;4.82;;;19.30;69.60;;;;;;4998385;28;20060;-74
2023/06/28 02:30:36;;;;;;;11.80;4.25;;;19.20;69.70;;;;;;5004937;28;20034;-76
2023/06/28 02:33:04;;;;;;;9.48;3.97;;;19.30;69.90;;;;;;5006613;28;20037;-75
2023/06/28 02:35:30;;;;;;;11.88;4.45;;;19.20;69.90;;;;;;5007281;28;20665;-75
2023/06/28 02:37:56;;;;;;;14.27;4.65;;;19.20;70.00;;;;;;5002598;28;20037;-75
2023/06/28 02:40:24;;;;;;;12.00;4.82;;;19.20;70.10;;;;;;5011572;28;20108;-75
2023/06/28 02:42:50;;;;;;;11.02;4.90;;;19.30;70.30;;;;;;5006071;28;20030;-75
2023/06/28 02:45:15;;;;;;;8.82;4.43;;;19.30;70.40;;;;;;5005758;28;20501;-76
2023/06/28 02:47:41;;;;;;;12.05;4.82;;;19.30;70.40;;;;;;5008200;28;20061;-75
2023/06/28 02:50:07;;;;;;;12.82;5.10;;;19.30;70.50;;;;;;5015156;28;20500;-75
2023/06/28 02:52:33;;;;;;;13.75;5.88;;;19.30;70.40;;;;;;5005262;28;20042;-75
2023/06/28 02:54:58;;;;;;;11.75;5.32;;;19.20;70.50;;;;;;5002246;28;20034;-75
2023/06/28 02:57:24;;;;;;;13.23;5.32;;;19.30;71.00;;;;;;4991932;28;20049;-75
2023/06/28 02:59:50;;;;;;;10.68;5.25;;;19.20;70.80;;;;;;4986940;28;20120;-75
2023/06/28 03:02:16;;;;;;;13.82;5.35;;;19.20;70.80;;;;;;4980574;28;20043;-75
2023/06/28 03:04:42;;;;;;;14.40;5.50;;;19.20;70.80;;;;;;4988675;28;20068;-76
2023/06/28 03:07:15;;;;;;;11.35;5.00;;;19.20;71.10;;;;;;4988893;28;20506;-74
2023/06/28 03:09:41;;;;;;;10.83;5.20;;;19.20;71.20;;;;;;4984149;28;20110;-76
2023/06/28 03:12:07;;;;;;;13.27;5.78;;;19.20;71.40;;;;;;4986354;28;20508;-74
2023/06/28 03:14:34;;;;;;;16.52;5.28;;;19.20;71.40;;;;;;4986280;28;20050;-75
2023/06/28 03:16:59;;;;;;;14.05;5.30;;;19.20;71.70;;;;;;4994299;28;20070;-75
2023/06/28 03:19:25;;;;;;;11.00;5.78;;;19.20;71.70;;;;;;4993923;28;20069;-75
2023/06/28 03:21:52;;;;;;;13.30;4.88;;;19.20;71.70;;;;;;4987094;28;20050;-75
2023/06/28 03:24:18;;;;;;;15.45;5.35;;;19.20;71.90;;;;;;4998605;28;20531;-75
2023/06/28 03:26:43;;;;;;;12.98;5.43;;;19.10;72.00;;;;;;4989903;28;20053;-75
2023/06/28 03:29:09;;;;;;;12.13;5.15;;;19.20;72.10;;;;;;4987579;28;20451;-75
2023/06/28 03:31:34;;;;;;;11.75;5.55;;;19.10;72.20;;;;;;4988614;28;20096;-75
2023/06/28 03:34:00;;;;;;;13.23;5.63;;;19.20;72.30;;;;;;5001904;28;20034;-74
2023/06/28 03:36:27;;;;;;;15.40;5.85;;;19.20;72.40;;;;;;4997853;28;20076;-76
2023/06/28 03:38:54;;;;;;;15.48;6.05;;;19.20;72.30;;;;;;5004656;28;20133;-76
2023/06/28 03:41:20;;;;;;;14.38;5.82;;;19.20;72.30;;;;;;5007255;28;20467;-75
2023/06/28 03:43:45;;;;;;;11.98;5.60;;;19.10;72.70;;;;;;5004579;28;20049;-75
2023/06/28 03:46:11;;;;;;;12.52;5.70;;;19.10;72.70;;;;;;5002575;28;20076;-76
2023/06/28 03:48:37;;;;;;;12.48;5.90;;;19.10;72.80;;;;;;5005301;28;20033;-75
2023/06/28 03:51:02;;;;;;;11.75;5.63;;;19.10;72.80;;;;;;5007513;28;20248;-76
2023/06/28 03:53:28;;;;;;;11.20;6.07;;;19.10;72.80;;;;;;5003726;28;20029;-76
2023/06/28 03:55:54;;;;;;;13.57;5.65;;;19.10;73.10;;;;;;5002348;28;20167;-75
2023/06/28 03:58:19;;;;;;;13.90;5.53;;;19.20;73.00;;;;;;5014178;28;20026;-76
2023/06/28 04:00:45;;;;;;;12.80;6.18;;;19.20;73.00;;;;;;5002367;28;20406;-76
2023/06/28 04:03:11;;;;;;;11.35;6.13;;;19.20;73.20;;;;;;5005777;28;20386;-75
2023/06/28 04:05:36;;;;;;;13.88;6.82;;;19.10;73.40;;;;;;5001336;28;20385;-76
2023/06/28 04:08:02;;;;;;;15.63;7.47;;;19.10;73.60;;;;;;4996744;28;20037;-75
2023/06/28 04:10:28;;;;;;;13.18;6.53;;;19.10;73.80;;;;;;5006518;28;20050;-75
2023/06/28 04:12:53;;;;;;;20.27;7.43;;;19.10;74.10;;;;;;5010608;28;20478;-75
2023/06/28 04:15:19;;;;;;;11.95;6.07;;;19.10;74.00;;;;;;5002736;28;20054;-75
2023/06/28 04:17:45;;;;;;;12.15;6.38;;;19.10;74.10;;;;;;5006028;28;20080;-75
2023/06/28 04:20:11;;;;;;;12.55;6.18;;;19.10;73.70;;;;;;5005058;28;20038;-76
2023/06/28 04:22:37;;;;;;;14.10;6.70;;;19.10;73.90;;;;;;5004743;28;20025;-75
2023/06/28 04:25:03;;;;;;;14.65;6.30;;;19.20;73.80;;;;;;5006897;28;20096;-75
2023/06/28 04:27:28;;;;;;;15.98;6.50;;;19.20;73.70;;;;;;5001433;28;20046;-74
2023/06/28 04:29:54;;;;;;;13.95;6.93;;;19.20;73.80;;;;;;5002381;28;20397;-74
2023/06/28 04:32:25;;;;;;;13.48;5.85;;;19.20;74.00;;;;;;5005647;28;20030;-74
2023/06/28 04:34:53;;;;;;;15.10;6.32;;;19.30;73.90;;;;;;4999890;28;20483;-75
2023/06/28 04:37:22;;;;;;;16.17;6.88;;;19.30;73.90;;;;;;5001123;28;20034;-75
2023/06/28 04:39:49;;;;;;;12.35;6.20;;;19.30;74.00;;;;;;5013483;28;20064;-75
2023/06/28 04:42:14;;;;;;;14.20;6.85;;;19.30;74.10;;;;;;5012211;28;20070;-74
2023/06/28 04:44:44;;;;;;;15.25;7.07;;;19.30;74.20;;;;;;5006714;28;20030;-74
2023/06/28 04:47:15;;;;;;;14.18;6.35;;;19.20;74.00;;;;;;5011107;28;20038;-75
2023/06/28 04:49:45;;;;;;;16.58;6.57;;;19.30;74.20;;;;;;5012644;28;20467;-75
2023/06/28 04:52:12;;;;;;;14.98;6.20;;;19.30;74.50;;;;;;5004789;28;20431;-75
2023/06/28 04:54:39;;;;;;;15.48;6.95;;;19.30;74.40;;;;;;5009249;28;20026;-74
2023/06/28 04:57:05;;;;;;;16.80;7.25;;;19.40;74.20;;;;;;5009372;28;20092;-75
2023/06/28 04:59:31;;;;;;;14.77;7.35;;;19.40;74.10;;;;;;5013073;28;20026;-76
2023/06/28 05:01:58;;;;;;;15.00;7.20;;;19.50;74.00;;;;;;5012483;28;20049;-75
2023/06/28 05:04:24;;;;;;;14.15;7.07;;;19.50;73.90;;;;;;5011175;28;20079;-75
2023/06/28 05:06:51;;;;;;;12.98;7.50;;;19.50;73.90;;;;;;5007225;28;20471;-76
2023/06/28 05:09:18;;;;;;;14.85;7.25;;;19.60;73.70;;;;;;5011588;28;20025;-75
2023/06/28 05:11:43;;;;;;;16.85;7.72;;;19.60;73.60;;;;;;5002701;28;20162;-74
2023/06/28 05:14:09;;;;;;;18.17;7.50;;;19.60;73.80;;;;;;5013060;28;20061;-74
2023/06/28 05:16:35;;;;;;;14.70;7.55;;;19.60;73.90;;;;;;5005128;28;20061;-75
2023/06/28 05:19:00;;;;;;;15.88;7.60;;;19.70;73.60;;;;;;5006680;28;20029;-75
2023/06/28 05:21:26;;;;;;;14.60;7.75;;;19.70;73.30;;;;;;5009995;28;20124;-74
2023/06/28 05:23:51;;;;;;;17.25;7.53;;;19.80;73.30;;;;;;4999071;28;20022;-74
2023/06/28 05:26:17;;;;;;;17.27;7.30;;;19.80;73.10;;;;;;5009694;28;20496;-75
2023/06/28 05:28:43;;;;;;;14.90;7.05;;;19.80;73.40;;;;;;5008271;28;20032;-74
2023/06/28 05:31:08;;;;;;;17.58;7.63;;;19.70;73.60;;;;;;5013107;28;20040;-75
2023/06/28 05:33:34;;;;;;;17.00;7.40;;;19.70;73.70;;;;;;5001203;28;20037;-76
2023/06/28 05:36:00;;;;;;;18.40;7.45;;;19.80;73.40;;;;;;5004854;28;20102;-75
2023/06/28 05:38:25;;;;;;;18.00;8.55;;;19.80;73.50;;;;;;5004846;28;20034;-75
2023/06/28 05:40:57;;;;;;;18.23;7.70;;;19.70;73.50;;;;;;5006964;28;20485;-75
2023/06/28 05:43:23;;;;;;;13.02;6.90;;;19.80;73.90;;;;;;5003622;28;20037;-75
2023/06/28 05:45:50;;;;;;;15.55;7.95;;;19.90;73.70;;;;;;5004963;28;20022;-76
2023/06/28 05:48:16;;;;;;;13.65;7.30;;;19.90;73.60;;;;;;5005913;28;20560;-76
2023/06/28 05:50:42;;;;;;;18.55;7.70;;;20.10;73.30;;;;;;5011102;28;20112;-76
2023/06/28 05:53:08;;;;;;;15.60;7.15;;;20.10;73.10;;;;;;5002150;28;20034;-75
2023/06/28 05:55:34;;;;;;;18.50;7.50;;;20.30;73.00;;;;;;5007979;28;20041;-76
2023/06/28 05:57:59;;;;;;;17.80;8.13;;;20.30;72.70;;;;;;5011469;28;20088;-76
2023/06/28 06:00:25;;;;;;;15.75;7.25;;;20.30;73.00;;;;;;5010115;28;20577;-75
2023/06/28 06:02:51;;;;;;;15.50;7.43;;;20.30;72.80;;;;;;5003197;28;20623;-76
2023/06/28 06:05:16;;;;;;;15.43;7.20;;;20.30;72.90;;;;;;5003774;28;20021;-76
2023/06/28 06:07:42;;;;;;;15.88;7.65;;;20.30;73.00;;;;;;5011097;28;20041;-76
2023/06/28 06:10:09;;;;;;;17.02;7.25;;;20.50;72.70;;;;;;5017642;28;20029;-76
2023/06/28 06:12:35;;;;;;;15.38;7.35;;;20.60;72.30;;;;;;5013973;28;20048;-75
2023/06/28 06:15:01;;;;;;;17.25;7.85;;;20.60;72.40;;;;;;5008252;28;20053;-75
2023/06/28 06:17:27;;;;;;;15.98;7.45;;;20.60;72.40;;;;;;5003104;28;20718;-75
2023/06/28 06:19:52;;;;;;;15.15;7.50;;;20.70;72.20;;;;;;5010487;28;20045;-74
2023/06/28 06:22:18;;;;;;;21.73;8.65;;;20.80;71.90;;;;;;5002336;28;20520;-74
2023/06/28 06:24:44;;;;;;;16.15;8.00;;;20.90;71.40;;;;;;5008482;28;20033;-74
2023/06/28 06:27:09;;;;;;;17.90;7.93;;;20.90;71.80;;;;;;5008900;28;20038;-73
2023/06/28 06:29:35;;;;;;;14.85;8.20;;;20.90;71.50;;;;;;5006323;28;20149;-74
2023/06/28 06:32:01;;;;;;;19.85;8.70;;;20.90;71.70;;;;;;5002746;28;20034;-74
2023/06/28 06:34:26;;;;;;;18.85;8.80;;;21.00;71.60;;;;;;5008006;28;20018;-73
2023/06/28 06:36:54;;;;;;;19.27;8.48;;;21.00;71.40;;;;;;5007324;28;20042;-72
2023/06/28 06:39:20;;;;;;;13.27;7.78;;;21.10;71.50;;;;;;5006587;28;20060;-72
2023/06/28 06:41:46;;;;;;;16.58;8.82;;;21.10;71.50;;;;;;5007883;28;20054;-73
2023/06/28 06:44:11;;;;;;;15.52;8.05;;;21.10;70.90;;;;;;5006276;28;20394;-72
2023/06/28 06:46:37;;;;;;;16.95;9.02;;;21.20;71.10;;;;;;4998127;28;20065;-72
2023/06/28 06:49:03;;;;;;;17.92;8.10;;;21.20;70.90;;;;;;5004799;28;20033;-72
2023/06/28 06:51:28;;;;;;;16.38;7.97;;;21.20;71.30;;;;;;5008522;28;20042;-72
2023/06/28 06:53:54;;;;;;;16.95;8.18;;;21.30;71.00;;;;;;5003635;28;20036;-73
2023/06/28 06:56:23;;;;;;;22.20;9.40;;;21.10;71.90;;;;;;4999150;28;20076;-72
2023/06/28 06:58:49;;;;;;;17.77;8.85;;;21.10;72.00;;;;;;4993162;28;20033;-73
2023/06/28 07:01:15;;;;;;;18.45;8.82;;;21.20;71.70;;;;;;4993228;28;20076;-72
2023/06/28 07:03:40;;;;;;;17.13;8.55;;;21.20;71.10;;;;;;4990184;28;20022;-72
2023/06/28 07:06:06;;;;;;;16.23;7.57;;;21.40;71.20;;;;;;4994947;28;20034;-73
2023/06/28 07:08:33;;;;;;;15.75;8.82;;;21.50;71.10;;;;;;4993046;28;20480;-72
2023/06/28 07:10:59;;;;;;;19.25;9.02;;;21.50;70.80;;;;;;5008801;28;20437;-72
2023/06/28 07:13:25;;;;;;;19.23;8.82;;;21.50;71.00;;;;;;5002898;28;20030;-72
2023/06/28 07:15:50;;;;;;;21.35;9.68;;;21.50;70.60;;;;;;5010694;28;20065;-72
2023/06/28 07:18:16;;;;;;;18.30;8.52;;;21.60;70.60;;;;;;5013009;28;20395;-74
2023/06/28 07:20:42;;;;;;;17.48;8.85;;;21.60;70.70;;;;;;4994927;28;21675;-74
2023/06/28 07:23:07;;;;;;;15.82;8.60;;;21.80;69.90;;;;;;5000323;28;20085;-76
2023/06/28 07:25:33;;;;;;;14.82;8.50;;;21.80;70.10;;;;;;5001143;28;20037;-78
2023/06/28 07:27:59;;;;;;;17.70;8.52;;;21.90;69.90;;;;;;5001376;28;20041;-76
2023/06/28 07:30:28;;;;;;;17.50;8.63;;;22.00;69.60;;;;;;5006249;28;20030;-76
2023/06/28 07:32:54;;;;;;;17.48;8.48;;;22.00;69.10;;;;;;4998484;28;20476;-77
2023/06/28 07:35:19;;;;;;;17.65;8.50;;;22.00;69.10;;;;;;5009417;28;20057;-76
2023/06/28 07:37:45;;;;;;;17.15;9.32;;;22.00;69.20;;;;;;5010138;28;20119;-74
2023/06/28 07:40:13;;;;;;;18.67;9.10;;;21.80;69.70;;;;;;5012957;28;20033;-75
2023/06/28 07:42:41;;;;;;;21.35;8.90;;;21.80;70.50;;;;;;5000894;28;20473;-74
2023/06/28 07:45:07;;;;;;;18.98;9.52;;;21.80;70.60;;;;;;5001590;28;20458;-76
2023/06/28 07:47:33;;;;;;;21.48;9.30;;;21.90;69.80;;;;;;4996944;28;20018;-75
2023/06/28 07:49:59;;;;;;;13.70;8.00;;;22.00;69.90;;;;;;5004561;28;20053;-77
2023/06/28 07:52:24;;;;;;;19.55;9.00;;;22.20;69.50;;;;;;5007898;28;20099;-75
2023/06/28 07:54:51;;;;;;;17.85;9.73;;;22.40;68.70;;;;;;5008196;28;20485;-78
2023/06/28 07:57:17;;;;;;;15.43;8.77;;;22.50;68.00;;;;;;5000495;28;20584;-81
2023/06/28 07:59:43;;;;;;;18.45;9.75;;;22.50;68.10;;;;;;5006498;28;20030;-79
2023/06/28 08:02:08;;;;;;;16.48;8.30;;;22.60;68.00;;;;;;5014538;28;20413;-76
2023/06/28 08:04:34;;;;;;;17.58;8.85;;;22.50;68.40;;;;;;4995210;28;20401;-74
2023/06/28 08:07:00;;;;;;;20.20;9.13;;;22.50;68.20;;;;;;4997177;28;20461;-78
2023/06/28 08:09:26;;;;;;;15.30;8.38;;;22.40;67.90;;;;;;5004401;28;20068;-75
2023/06/28 08:11:51;;;;;;;16.95;8.52;;;22.40;68.40;;;;;;4996107;28;20038;-80
2023/06/28 08:14:17;;;;;;;16.23;9.15;;;22.50;68.40;;;;;;5009997;28;20046;-76
2023/06/28 08:16:45;;;;;;;15.10;8.27;;;22.50;68.10;;;;;;5012357;28;20103;-77
2023/06/28 08:19:13;;;;;;;18.55;9.48;;;22.40;68.60;;;;;;4996809;28;20109;-74
2023/06/28 08:21:39;;;;;;;18.08;8.63;;;22.40;68.50;;;;;;5005747;28;20077;-75
2023/06/28 08:24:05;;;;;;;18.48;9.90;;;22.40;68.90;;;;;;5011204;28;20053;-74
2023/06/28 08:26:30;;;;;;;21.00;11.27;;;22.40;68.20;;;;;;5003906;28;20034;-76
2023/06/28 08:28:56;;;;;;;18.05;10.02;;;22.40;68.70;;;;;;4998421;28;20030;-77
2023/06/28 08:31:22;;;;;;;16.80;10.13;;;22.30;68.90;;;;;;5011238;28;20095;-74
2023/06/28 08:33:48;;;;;;;17.13;9.40;;;22.30;69.50;;;;;;5007374;28;20387;-74
2023/06/28 08:36:13;;;;;;;20.65;11.18;;;22.40;69.20;;;;;;5003273;28;20125;-75
2023/06/28 08:38:39;;;;;;;17.83;11.00;;;22.40;69.10;;;;;;5010601;28;20087;-75
2023/06/28 08:41:05;;;;;;;22.17;11.45;;;22.40;69.30;;;;;;5002279;28;20390;-76
2023/06/28 08:43:31;;;;;;;23.85;12.45;;;22.40;69.80;;;;;;5000671;28;20064;-77
2023/06/28 08:45:57;;;;;;;21.23;11.43;;;22.50;69.00;;;;;;5006107;28;20025;-76
2023/06/28 08:48:23;;;;;;;21.60;11.93;;;22.40;69.40;;;;;;5008624;28;20087;-76
2023/06/28 08:50:49;;;;;;;22.85;11.45;;;22.40;68.90;;;;;;5003231;28;20030;-78
2023/06/28 08:53:19;;;;;;;21.73;12.07;;;22.50;69.00;;;;;;5001376;28;20129;-78
2023/06/28 08:55:46;;;;;;;16.35;10.05;;;22.50;68.90;;;;;;4993452;28;20033;-79
2023/06/28 08:58:12;;;;;;;20.15;11.90;;;22.60;69.40;;;;;;4998450;28;20449;-78
2023/06/28 09:00:41;;;;;;;23.83;12.82;;;22.70;69.10;;;;;;5007078;28;20383;-78
2023/06/28 09:03:08;;;;;;;19.95;11.68;;;22.90;67.80;;;;;;4999744;28;20073;-81
2023/06/28 09:05:34;;;;;;;19.63;12.48;;;22.90;68.10;;;;;;4999291;28;20475;-78
2023/06/28 09:08:00;;;;;;;19.83;12.10;;;23.00;68.20;;;;;;5007684;28;20065;-79
2023/06/28 09:10:25;;;;;;;23.63;12.45;;;22.90;68.50;;;;;;5000557;28;20375;-82
2023/06/28 09:12:52;;;;;;;22.13;12.68;;;22.80;69.00;;;;;;5009108;28;20049;-80
2023/06/28 09:15:20;;;;;;;21.60;11.93;;;22.80;68.80;;;;;;5004441;28;20049;-79
2023/06/28 09:17:46;;;;;;;22.92;13.05;;;22.80;68.70;;;;;;5004106;28;20048;-78
2023/06/28 09:20:16;;;;;;;19.40;13.20;;;22.90;68.60;;;;;;5008195;28;20154;-78
2023/06/28 09:22:42;;;;;;;21.98;13.70;;;22.80;68.70;;;;;;5007616;28;20033;-77
2023/06/28 09:25:08;;;;;;;23.85;13.27;;;22.80;69.20;;;;;;5000642;28;20040;-78
2023/06/28 09:27:34;;;;;;;23.48;14.18;;;22.80;69.10;;;;;;5012103;28;20113;-79
2023/06/28 09:30:00;;;;;;;23.85;13.50;;;22.90;68.90;;;;;;5010496;28;20033;-79
2023/06/28 09:32:38;;;;;;;24.67;13.55;;;23.00;68.60;;;;;;5012962;28;20096;-80
2023/06/28 09:35:09;;;;;;;21.25;13.18;;;23.10;68.10;;;;;;5010858;28;20033;-79
2023/06/28 09:37:37;;;;;;;21.40;13.57;;;23.30;68.10;;;;;;5008972;28;20040;-78
2023/06/28 09:40:05;;;;;;;23.55;13.15;;;23.40;67.30;;;;;;5008084;28;20109;-77
2023/06/28 09:42:31;;;;;;;20.33;13.20;;;23.60;66.30;;;;;;5005352;28;20025;-79
2023/06/28 09:44:57;;;;;;;21.42;14.57;;;23.70;66.50;;;;;;5008169;28;20026;-75
2023/06/28 09:47:32;;;;;;;21.25;13.32;;;23.90;66.20;;;;;;5006731;28;20038;-76
2023/06/28 09:50:01;;;;;;;19.65;13.38;;;24.10;66.00;;;;;;5002224;28;20038;-78
2023/06/28 09:52:26;;;;;;;21.52;13.20;;;24.10;65.40;;;;;;4998763;28;20568;-77
2023/06/28 09:54:52;;;;;;;22.50;13.35;;;24.10;65.10;;;;;;4989539;28;20031;-77
2023/06/28 09:57:18;;;;;;;22.70;13.35;;;24.30;64.70;;;;;;4984237;28;20037;-80
2023/06/28 09:59:45;;;;;;;24.75;13.38;;;24.30;63.90;;;;;;4992468;28;20041;-79
2023/06/28 10:02:16;;;;;;;21.02;13.00;;;24.50;63.30;;;;;;4990768;28;20495;-78
2023/06/28 10:04:42;;;;;;;24.48;14.70;;;24.70;63.40;;;;;;4986569;28;20458;-80
2023/06/28 10:07:10;;;;;;;26.38;14.45;;;24.80;62.40;;;;;;4991372;28;20039;-77
2023/06/28 10:09:38;;;;;;;24.05;15.15;;;24.90;62.90;;;;;;4992636;28;20034;-75
2023/06/28 10:12:09;;;;;;;24.85;14.50;;;24.90;62.10;;;;;;4991650;28;20043;-77
2023/06/28 10:14:40;;;;;;;20.38;15.27;;;24.80;62.50;;;;;;4983525;28;20101;-75
2023/06/28 10:17:06;;;;;;;24.83;15.80;;;24.80;63.10;;;;;;4988261;28;20097;-77
2023/06/28 10:19:33;;;;;;;21.73;14.25;;;24.70;63.60;;;;;;4987237;28;20046;-76
2023/06/28 10:21:59;;;;;;;21.35;14.48;;;24.60;63.90;;;;;;4987443;28;20501;-79
2023/06/28 10:24:32;;;;;;;21.30;13.73;;;24.60;63.10;;;;;;4987723;28;20037;-80
2023/06/28 10:27:00;;;;;;;20.63;13.90;;;24.60;63.00;;;;;;4983443;28;20027;-76
2023/06/28 10:29:26;;;;;;;22.85;13.93;;;24.60;63.10;;;;;;4989639;28;20026;-78
2023/06/28 10:31:53;;;;;;;21.13;14.10;;;24.70;63.20;;;;;;4982495;28;20561;-83
2023/06/28 10:34:19;;;;;;;20.98;15.05;;;24.70;63.60;;;;;;4994561;28;20045;-79
2023/06/28 10:36:45;;;;;;;21.80;14.38;;;24.70;63.70;;;;;;4986559;28;20607;-75
2023/06/28 10:39:11;;;;;;;22.42;12.70;;;24.70;63.80;;;;;;4976623;28;20110;-75
2023/06/28 10:41:37;;;;;;;19.98;14.00;;;24.70;63.60;;;;;;4979397;28;20054;-78
2023/06/28 10:44:04;;;;;;;20.55;14.10;;;24.90;62.70;;;;;;4976296;28;20092;-80
2023/06/28 10:46:31;;;;;;;24.52;14.95;;;25.00;62.70;;;;;;4977811;28;20034;-75
2023/06/28 10:48:59;;;;;;;22.95;15.10;;;25.00;63.20;;;;;;4982825;28;20026;-81
2023/06/28 10:51:30;;;;;;;20.73;14.30;;;25.00;63.80;;;;;;4976667;28;21674;-75
2023/06/28 10:54:14;;;;;;;23.30;14.50;;;25.10;63.40;;;;;;4974239;28;20241;-74
2023/06/28 10:56:46;;;;;;;;;;;25.50;61.90;;;;;;4967813;28;20503;-78
2023/06/28 10:59:11;;;;;;;18.20;12.13;;;25.50;61.70;;;;;;4978184;28;20370;-74
2023/06/28 11:01:38;;;;;;;20.02;12.07;;;25.70;60.60;;;;;;4974998;28;20053;-76
2023/06/28 11:04:12;;;;;;;21.17;12.50;;;26.00;60.00;;;;;;4973648;28;20027;-76
2023/06/28 11:06:39;;;;;;;19.65;11.95;;;26.30;58.60;;;;;;4975881;28;20046;-74
2023/06/28 11:09:16;;;;;;;16.83;11.60;;;26.50;58.10;;;;;;4981326;28;20091;-77
2023/06/28 11:12:03;;;;;;;17.52;11.70;;;26.70;57.30;;;;;;4972460;28;20583;-81
2023/06/28 11:14:31;;;;;;;20.90;12.35;;;26.80;56.40;;;;;;4959469;28;20038;-77
2023/06/28 11:17:07;;;;;;;15.73;10.75;;;26.80;57.80;;;;;;4962601;28;20042;-76
2023/06/28 11:19:32;;;;;;;16.38;10.45;;;26.80;57.10;;;;;;4964993;28;20065;-76
2023/06/28 11:22:00;;;;;;;15.13;9.18;;;27.00;56.30;;;;;;4962499;28;20074;-77
2023/06/28 11:24:42;;;;;;;16.75;10.68;;;27.10;56.40;;;;;;4961099;28;20189;-78
2023/06/28 11:27:19;;;;;;;17.20;9.80;;;27.10;56.30;;;;;;4973471;28;20049;-76
2023/06/28 11:30:00;;;;;;;17.45;10.95;;;27.10;55.50;;;;;;4979892;28;20034;-75
2023/06/28 11:32:32;;;;;;;16.20;9.88;;;27.20;55.40;;;;;;4982663;28;20077;-76
2023/06/28 11:34:59;;;;;;;17.02;9.10;;;27.60;54.70;;;;;;4982420;28;20046;-75
2023/06/28 11:37:26;;;;;;;14.82;9.18;;;27.70;55.00;;;;;;4980978;28;20145;-75
2023/06/28 11:39:53;;;;;;;15.90;9.73;;;27.60;54.40;;;;;;4999296;28;20598;-74
2023/06/28 11:42:19;;;;;;;13.02;9.48;;;27.20;55.20;;;;;;4980964;28;20424;-74
2023/06/28 11:44:47;;;;;;;12.38;8.70;;;27.10;55.90;;;;;;4983172;28;20410;-80
2023/06/28 11:47:16;;;;;;;16.13;9.50;;;27.00;56.50;;;;;;4986119;28;20050;-78
2023/06/28 11:49:43;;;;;;;16.58;9.45;;;26.50;57.50;;;;;;4985047;28;20037;-75
2023/06/28 11:52:09;;;;;;;14.60;9.15;;;26.30;57.50;;;;;;4981980;28;20069;-78
2023/06/28 11:54:35;;;;;;;16.05;10.00;;;26.10;58.80;;;;;;4987785;28;20030;-79
2023/06/28 11:57:01;;;;;;;17.48;10.40;;;26.10;58.40;;;;;;4979436;28;20045;-78
2023/06/28 11:59:29;;;;;;;15.73;9.30;;;25.90;58.70;;;;;;4983997;28;20379;-79
2023/06/28 12:02:06;;;;;;;14.23;9.23;;;26.00;58.80;;;;;;4986389;28;20046;-83
2023/06/28 12:04:34;;;;;;;17.75;11.13;;;26.10;58.40;;;;;;4964725;28;20471;-80
2023/06/28 12:07:09;;;;;;;15.70;9.98;;;26.10;58.00;;;;;;4974492;28;20200;-81
2023/06/28 12:09:36;;;;;;;13.38;9.73;;;26.10;58.00;;;;;;4975422;28;20030;-81
2023/06/28 12:12:06;;;;;;;14.60;10.40;;;26.00;58.50;;;;;;4974707;28;20126;-81
2023/06/28 12:14:40;;;;;;;15.65;10.25;;;26.00;58.20;;;;;;4965821;28;20047;-80
2023/06/28 12:17:06;;;;;;;15.27;10.35;;;26.10;57.40;;;;;;4976606;28;20046;-80
2023/06/28 12:19:33;;;;;;;16.63;10.40;;;26.30;57.30;;;;;;4985387;28;20022;-81
2023/06/28 12:22:03;;;;;;;17.40;10.20;;;26.50;56.80;;;;;;4973332;28;20134;-80
2023/06/28 12:24:30;;;;;;;18.25;9.75;;;26.80;56.20;;;;;;4967149;28;20037;-80
2023/06/28 12:26:57;;;;;;;19.13;10.48;;;27.00;55.20;;;;;;4975507;28;20042;-81
2023/06/28 12:29:25;;;;;;;14.13;9.80;;;27.00;55.30;;;;;;4976648;28;20023;-80
2023/06/28 12:31:56;;;;;;;17.73;11.10;;;27.20;55.50;;;;;;4966064;28;20097;-79
2023/06/28 12:34:24;;;;;;;15.40;10.65;;;27.30;55.30;;;;;;4972344;28;20039;-79